createdAt,value
2018-07-05T00:02:23.457Z,29.90
2018-07-05T00:05:03.223Z,16.17
2018-07-05T00:07:43.119Z,29.73
2018-07-05T00:10:23.055Z,19.00
2018-07-05T00:13:02.864Z,17.93
2018-07-05T00:15:42.647Z,24.00
2018-07-05T00:18:22.692Z,19.77
2018-07-05T00:21:02.515Z,18.90
2018-07-05T00:23:42.648Z,21.47
2018-07-05T00:26:22.485Z,20.13
2018-07-05T00:29:02.534Z,22.97
2018-07-05T00:31:42.391Z,23.23
2018-07-05T00:34:22.340Z,17.77
2018-07-05T00:37:02.236Z,35.40
2018-07-05T00:39:42.227Z,24.57
2018-07-05T00:42:22.136Z,21.93
2018-07-05T00:45:02.324Z,32.97
2018-07-05T00:47:42.179Z,23.53
2018-07-05T00:50:22.212Z,21.43
2018-07-05T00:53:01.972Z,20.97
2018-07-05T00:55:41.652Z,26.57
2018-07-05T00:58:21.407Z,22.33
2018-07-05T01:01:01.200Z,17.87
2018-07-05T01:03:40.836Z,43.83
2018-07-05T01:06:20.591Z,26.80
2018-07-05T01:09:00.550Z,23.93
2018-07-05T01:11:40.788Z,32.33
2018-07-05T01:14:20.618Z,24.63
2018-07-05T01:17:00.909Z,24.93
2018-07-05T01:19:41.036Z,28.60
2018-07-05T01:22:21.607Z,29.23
2018-07-05T01:25:01.491Z,18.57
2018-07-05T01:27:41.237Z,21.53
2018-07-05T01:30:21.143Z,26.03
2018-07-05T01:33:01.097Z,39.40
2018-07-05T01:35:40.838Z,21.90
2018-07-05T01:38:20.823Z,22.60
2018-07-05T01:41:01.011Z,24.60
2018-07-05T01:43:41.108Z,34.83
2018-07-05T01:46:21.047Z,30.57
2018-07-05T01:49:01.224Z,48.63
2018-07-05T01:51:40.939Z,31.53
2018-07-05T01:54:21.008Z,22.90
2018-07-05T01:57:00.715Z,25.37
2018-07-05T01:59:41.219Z,28.93
2018-07-05T02:02:20.896Z,36.50
2018-07-05T02:05:00.904Z,22.90
2018-07-05T02:07:40.604Z,33.10
2018-07-05T02:10:20.672Z,28.83
2018-07-05T02:13:00.379Z,26.07
2018-07-05T02:15:40.511Z,22.40
2018-07-05T02:18:20.436Z,26.73
2018-07-05T02:21:00.404Z,19.93
2018-07-05T02:23:40.128Z,31.43
2018-07-05T02:26:19.940Z,31.73
2018-07-05T02:28:59.764Z,19.93
2018-07-05T02:31:39.936Z,25.43
2018-07-05T02:34:19.756Z,25.17
2018-07-05T02:36:59.559Z,29.43
2018-07-05T02:39:44.580Z,38.73
2018-07-05T02:42:24.707Z,22.10
2018-07-05T02:45:04.589Z,20.27
2018-07-05T02:47:44.347Z,37.17
2018-07-05T02:50:24.167Z,25.33
2018-07-05T02:53:04.009Z,21.43
2018-07-05T02:55:43.770Z,26.77
2018-07-05T02:58:23.597Z,24.20
2018-07-05T03:01:04.256Z,29.10
2018-07-05T03:03:44.028Z,17.37
2018-07-05T03:06:23.891Z,21.03
2018-07-05T03:09:05.053Z,22.07
2018-07-05T03:11:44.876Z,19.50
2018-07-05T03:14:24.814Z,28.57
2018-07-05T03:17:04.625Z,25.47
2018-07-05T03:19:44.389Z,23.70
2018-07-05T03:22:24.142Z,26.27
2018-07-05T03:25:04.137Z,22.57
2018-07-05T03:27:43.929Z,26.10
2018-07-05T03:30:24.019Z,22.63
2018-07-05T03:33:03.728Z,28.03
2018-07-05T03:35:43.707Z,21.27
2018-07-05T03:38:23.312Z,22.27
2018-07-05T03:41:03.153Z,21.87
2018-07-05T03:43:42.781Z,22.50
2018-07-05T03:46:22.996Z,28.90
2018-07-05T03:49:02.832Z,22.37
2018-07-05T03:51:42.783Z,29.07
2018-07-05T03:54:22.555Z,27.30
2018-07-05T03:57:02.600Z,20.13
2018-07-05T03:59:42.473Z,20.63
2018-07-05T04:02:22.184Z,20.80
2018-07-05T04:05:01.905Z,32.97
2018-07-05T04:07:41.743Z,18.70
2018-07-05T04:10:21.512Z,22.13
2018-07-05T04:13:01.471Z,15.03
2018-07-05T04:15:41.349Z,16.40
2018-07-05T04:18:21.180Z,16.33
2018-07-05T04:21:01.039Z,23.20
2018-07-05T04:23:40.864Z,30.93
2018-07-05T04:26:20.792Z,21.50
2018-07-05T04:29:00.855Z,20.27
2018-07-05T04:31:40.791Z,16.10
2018-07-05T04:34:20.721Z,20.10
2018-07-05T04:37:00.376Z,18.17
2018-07-05T04:39:40.300Z,24.53
2018-07-05T04:42:20.076Z,21.60
2018-07-05T04:44:59.896Z,16.90
2018-07-05T04:47:40.084Z,17.80
2018-07-05T04:50:20.372Z,16.63
2018-07-05T04:53:00.332Z,20.83
2018-07-05T04:55:40.624Z,19.13
2018-07-05T04:58:20.426Z,17.10
2018-07-05T05:01:00.121Z,18.73
2018-07-05T05:03:39.927Z,20.40
2018-07-05T05:06:20.060Z,23.20
2018-07-05T05:08:59.923Z,18.20
2018-07-05T05:11:39.964Z,29.37
2018-07-05T05:14:19.819Z,22.07
2018-07-05T05:16:59.691Z,22.63
2018-07-05T05:19:39.376Z,23.00
2018-07-05T05:22:19.279Z,21.57
2018-07-05T05:24:58.979Z,26.57
2018-07-05T05:27:38.721Z,18.80
2018-07-05T05:30:18.410Z,19.00
2018-07-05T05:32:58.379Z,16.90
2018-07-05T05:35:38.072Z,16.47
2018-07-05T05:38:18.087Z,17.13
2018-07-05T05:40:58.165Z,21.30
2018-07-05T05:43:38.435Z,18.57
2018-07-05T05:46:18.091Z,20.70
2018-07-05T05:48:57.927Z,22.57
2018-07-05T05:51:37.688Z,18.93
2018-07-05T05:54:17.572Z,23.80
2018-07-05T05:56:57.179Z,15.70
2018-07-05T05:59:36.956Z,17.00
2018-07-05T06:02:16.776Z,22.03
2018-07-05T06:04:56.632Z,19.03
2018-07-05T06:07:36.372Z,19.13
2018-07-05T06:10:16.281Z,16.63
2018-07-05T06:12:55.907Z,22.13
2018-07-05T06:15:36.203Z,20.83
2018-07-05T06:18:15.948Z,20.53
2018-07-05T06:20:55.740Z,23.23
2018-07-05T06:23:35.459Z,15.30
2018-07-05T06:26:15.505Z,14.97
2018-07-05T06:28:55.348Z,11.13
2018-07-05T06:31:35.184Z,18.17
2018-07-05T06:34:15.046Z,12.40
2018-07-05T06:36:54.879Z,23.40
2018-07-05T06:39:34.777Z,13.00
2018-07-05T06:42:14.625Z,17.23
2018-07-05T06:44:54.418Z,13.13
2018-07-05T06:47:34.981Z,22.23
2018-07-05T06:50:14.808Z,16.77
2018-07-05T06:52:54.454Z,19.13
2018-07-05T06:55:34.327Z,19.47
2018-07-05T06:58:14.581Z,18.23
2018-07-05T07:00:54.487Z,16.27
2018-07-05T07:03:34.339Z,19.13
2018-07-05T07:06:14.044Z,9.23
2018-07-05T07:08:54.087Z,14.33
2018-07-05T07:11:33.567Z,11.03
2018-07-05T07:14:13.380Z,19.70
2018-07-05T07:16:53.105Z,15.23
2018-07-05T07:19:32.867Z,19.67
2018-07-05T07:22:12.621Z,14.60
2018-07-05T07:24:52.546Z,23.60
2018-07-05T07:27:32.323Z,19.80
2018-07-05T07:30:12.353Z,14.77
2018-07-05T07:32:52.243Z,16.67
2018-07-05T07:35:32.044Z,9.97
2018-07-05T07:38:12.018Z,13.67
2018-07-05T07:40:52.132Z,13.03
2018-07-05T07:43:19.613Z,6.90
2018-07-05T07:45:46.975Z,9.40
2018-07-05T07:48:14.495Z,8.23
2018-07-05T07:50:41.784Z,6.93
2018-07-05T07:53:09.077Z,8.37
2018-07-05T07:55:36.386Z,8.60
2018-07-05T07:58:03.666Z,6.20
2018-07-05T08:00:30.952Z,5.23
2018-07-05T08:02:58.269Z,6.50
2018-07-05T08:05:25.574Z,5.73
2018-07-05T08:07:53.232Z,7.00
2018-07-05T08:10:20.800Z,3.43
2018-07-05T08:12:48.477Z,5.03
2018-07-05T08:15:15.775Z,5.50
2018-07-05T08:17:43.276Z,5.37
2018-07-05T08:20:10.803Z,4.93
2018-07-05T08:22:38.094Z,4.13
2018-07-05T08:25:05.408Z,5.93
2018-07-05T08:27:32.703Z,2.73
2018-07-05T08:29:59.984Z,8.30
2018-07-05T08:32:27.505Z,4.13
2018-07-05T08:34:54.875Z,4.40
2018-07-05T08:37:22.184Z,3.50
2018-07-05T08:39:49.868Z,3.77
2018-07-05T08:42:17.162Z,5.13
2018-07-05T08:44:44.560Z,3.80
2018-07-05T08:47:12.040Z,5.00
2018-07-05T08:49:39.331Z,6.13
2018-07-05T08:52:06.724Z,3.10
2018-07-05T08:54:34.224Z,7.83
2018-07-05T08:57:01.577Z,4.47
2018-07-05T08:59:28.855Z,3.63
2018-07-05T09:01:56.674Z,3.43
2018-07-05T09:04:24.044Z,7.50
2018-07-05T09:06:51.323Z,3.73
2018-07-05T09:09:18.761Z,3.50
2018-07-05T09:11:46.161Z,3.90
2018-07-05T09:14:13.452Z,5.43
2018-07-05T09:16:40.780Z,4.77
2018-07-05T09:19:08.056Z,6.17
2018-07-05T09:21:35.356Z,5.67
2018-07-05T09:24:03.797Z,4.87
2018-07-05T09:26:31.128Z,2.73
2018-07-05T09:28:58.430Z,3.63
2018-07-05T09:31:25.970Z,5.87
2018-07-05T09:33:53.287Z,9.90
2018-07-05T09:36:20.601Z,4.97
2018-07-05T09:38:48.106Z,6.33
2018-07-05T09:41:15.380Z,5.10
2018-07-05T09:43:42.667Z,4.50
2018-07-05T09:46:10.388Z,3.80
2018-07-05T09:48:37.677Z,3.70
2018-07-05T09:51:05.284Z,3.50
2018-07-05T09:53:32.768Z,4.40
2018-07-05T09:56:00.206Z,3.00
2018-07-05T09:58:27.492Z,3.00
2018-07-05T10:00:54.875Z,5.20
2018-07-05T10:03:22.885Z,3.97
2018-07-05T10:05:50.236Z,4.37
2018-07-05T10:08:18.643Z,3.67
2018-07-05T10:10:45.944Z,6.43
2018-07-05T10:13:13.778Z,2.83
2018-07-05T10:15:41.524Z,3.57
2018-07-05T10:18:08.880Z,4.57
2018-07-05T10:20:36.164Z,2.60
2018-07-05T10:23:03.695Z,4.20
2018-07-05T10:25:31.050Z,3.70
2018-07-05T10:27:58.335Z,4.73
2018-07-05T10:30:38.439Z,5.10
2018-07-05T10:33:18.079Z,6.17
2018-07-05T10:35:45.550Z,6.27
2018-07-05T10:38:12.834Z,4.73
2018-07-05T10:40:52.776Z,9.27
2018-07-05T10:43:32.519Z,4.50
2018-07-05T10:46:12.366Z,6.07
2018-07-05T10:48:52.304Z,3.97
2018-07-05T10:51:32.224Z,3.73
2018-07-05T10:54:11.959Z,4.87
2018-07-05T10:56:51.855Z,6.27
2018-07-05T10:59:31.616Z,3.70
2018-07-05T11:02:11.931Z,4.63
2018-07-05T11:04:51.857Z,3.80
2018-07-05T11:07:31.752Z,3.57
2018-07-05T11:10:11.487Z,9.20
2018-07-05T11:12:51.424Z,4.27
2018-07-05T11:15:31.290Z,8.27
2018-07-05T11:18:11.423Z,5.27
2018-07-05T11:20:51.011Z,10.03
2018-07-05T11:23:30.719Z,6.30
2018-07-05T11:26:10.496Z,12.93
2018-07-05T11:28:50.219Z,6.10
2018-07-05T11:31:30.073Z,5.67
2018-07-05T11:34:09.924Z,7.60
2018-07-05T11:36:49.745Z,5.00
2018-07-05T11:39:29.643Z,6.67
2018-07-05T11:42:09.364Z,10.80
2018-07-05T11:44:49.193Z,10.07
2018-07-05T11:47:28.852Z,9.10
2018-07-05T11:50:08.477Z,10.47
2018-07-05T11:52:48.312Z,6.63
2018-07-05T11:55:28.384Z,8.73
2018-07-05T11:58:08.120Z,8.73
2018-07-05T12:00:48.367Z,12.63
2018-07-05T12:03:28.105Z,13.53
2018-07-05T12:06:07.728Z,6.47
2018-07-05T12:08:47.763Z,9.00
2018-07-05T12:11:27.659Z,12.07
2018-07-05T12:14:07.292Z,11.53
2018-07-05T12:16:47.247Z,11.00
2018-07-05T12:19:26.831Z,8.67
2018-07-05T12:22:06.867Z,15.27
2018-07-05T12:24:46.533Z,13.20
2018-07-05T12:27:26.548Z,9.27
2018-07-05T12:30:06.677Z,14.87
2018-07-05T12:32:46.372Z,14.63
2018-07-05T12:35:26.132Z,11.13
2018-07-05T12:38:05.894Z,11.37
2018-07-05T12:40:45.567Z,11.60
2018-07-05T12:43:25.215Z,8.83
2018-07-05T12:46:04.993Z,7.40
2018-07-05T12:48:44.872Z,8.53
2018-07-05T12:51:24.627Z,8.83
2018-07-05T12:54:04.587Z,10.83
2018-07-05T12:56:44.400Z,8.63
2018-07-05T12:59:24.707Z,8.20
2018-07-05T13:02:04.572Z,10.50
2018-07-05T13:04:44.434Z,12.03
2018-07-05T13:07:24.260Z,13.70
2018-07-05T13:10:04.308Z,11.70
2018-07-05T13:12:44.305Z,10.93
2018-07-05T13:15:24.151Z,11.50
2018-07-05T13:18:03.756Z,12.73
2018-07-05T13:20:43.952Z,12.53
2018-07-05T13:23:23.560Z,18.00
2018-07-05T13:26:03.293Z,16.47
2018-07-05T13:28:43.053Z,18.97
2018-07-05T13:31:22.831Z,14.00
2018-07-05T13:34:02.649Z,12.47
2018-07-05T13:36:42.669Z,13.57
2018-07-05T13:39:22.320Z,13.40
2018-07-05T13:42:01.932Z,15.97
2018-07-05T13:44:41.684Z,15.90
2018-07-05T13:47:21.886Z,17.07
2018-07-05T13:50:01.493Z,15.10
2018-07-05T13:52:42.652Z,13.70
2018-07-05T13:55:22.985Z,11.90
2018-07-05T13:58:04.083Z,12.80
2018-07-05T14:00:44.146Z,11.23
2018-07-05T14:03:24.655Z,10.30
2018-07-05T14:06:04.775Z,14.20
2018-07-05T14:08:45.202Z,9.00
2018-07-05T14:11:26.657Z,13.03
2018-07-05T14:14:06.685Z,12.53
2018-07-05T14:16:47.168Z,12.37
2018-07-05T14:19:28.655Z,9.00
2018-07-05T14:22:10.059Z,12.40
2018-07-05T14:24:50.671Z,6.23
2018-07-05T14:27:31.457Z,10.03
2018-07-05T14:30:11.139Z,9.03
2018-07-05T14:32:51.259Z,5.00
2018-07-05T14:35:31.312Z,6.73
2018-07-05T14:38:12.049Z,7.27
2018-07-05T14:40:52.533Z,7.50
2018-07-05T14:43:32.256Z,7.50
2018-07-05T14:46:13.073Z,6.93
2018-07-05T14:48:54.463Z,8.03
2018-07-05T14:51:35.423Z,12.13
2018-07-05T14:54:16.965Z,7.57
2018-07-05T14:56:57.670Z,6.40
2018-07-05T14:59:37.736Z,7.30
2018-07-05T15:02:17.432Z,6.27
2018-07-05T15:04:57.114Z,9.47
2018-07-05T15:07:36.892Z,9.10
2018-07-05T15:10:16.821Z,10.83
2018-07-05T15:12:56.800Z,5.80
2018-07-05T15:15:36.441Z,9.47
2018-07-05T15:18:16.338Z,8.23
2018-07-05T15:20:56.190Z,6.10
2018-07-05T15:23:36.156Z,5.53
2018-07-05T15:26:15.980Z,8.83
2018-07-05T15:28:56.371Z,8.63
2018-07-05T15:31:36.244Z,7.37
2018-07-05T15:34:16.449Z,7.57
2018-07-05T15:36:56.240Z,7.13
2018-07-05T15:39:36.002Z,9.07
2018-07-05T15:42:15.795Z,11.53
2018-07-05T15:44:55.642Z,7.30
2018-07-05T15:47:35.357Z,18.63
2018-07-05T15:50:15.076Z,7.50
2018-07-05T15:52:54.936Z,8.10
2018-07-05T15:55:34.766Z,10.97
2018-07-05T15:58:14.532Z,7.30
2018-07-05T16:00:54.608Z,11.60
2018-07-05T16:03:35.302Z,9.60
2018-07-05T16:06:15.231Z,10.43
2018-07-05T16:08:54.887Z,9.03
2018-07-05T16:11:34.796Z,9.80
2018-07-05T16:14:14.852Z,10.67
2018-07-05T16:16:54.649Z,10.80
2018-07-05T16:19:34.608Z,11.03
2018-07-05T16:22:14.296Z,12.33
2018-07-05T16:24:54.063Z,14.03
2018-07-05T16:27:34.114Z,11.00
2018-07-05T16:30:13.852Z,14.27
2018-07-05T16:32:54.527Z,14.03
2018-07-05T16:35:34.374Z,14.93
2018-07-05T16:38:14.323Z,9.17
2018-07-05T16:40:55.079Z,10.47
2018-07-05T16:43:35.370Z,10.23
2018-07-05T16:46:15.264Z,10.03
2018-07-05T16:48:55.145Z,9.03
2018-07-05T16:51:34.914Z,11.47
2018-07-05T16:54:14.808Z,11.00
2018-07-05T16:56:54.609Z,13.47
2018-07-05T16:59:34.604Z,11.23
2018-07-05T17:02:14.404Z,14.90
2018-07-05T17:04:54.220Z,10.60
2018-07-05T17:07:33.816Z,10.23
2018-07-05T17:10:13.928Z,9.50
2018-07-05T17:12:53.839Z,12.83
2018-07-05T17:15:33.777Z,9.10
2018-07-05T17:18:13.535Z,12.47
2018-07-05T17:20:53.408Z,9.43
2018-07-05T17:23:33.116Z,9.23
2018-07-05T17:26:13.038Z,11.87
2018-07-05T17:28:52.935Z,9.60
2018-07-05T17:31:32.611Z,11.63
2018-07-05T17:34:12.572Z,5.80
2018-07-05T17:36:52.214Z,9.20
2018-07-05T17:39:31.921Z,7.77
2018-07-05T17:42:11.993Z,10.27
2018-07-05T17:44:51.744Z,9.67
2018-07-05T17:47:31.404Z,10.53
2018-07-05T17:50:11.255Z,15.87
2018-07-05T17:52:50.912Z,12.00
2018-07-05T17:55:30.692Z,9.80
2018-07-05T17:58:11.592Z,7.53
2018-07-05T18:00:51.359Z,8.43
2018-07-05T18:03:31.243Z,4.90
2018-07-05T18:06:11.327Z,7.47
2018-07-05T18:08:51.412Z,6.20
2018-07-05T18:11:31.109Z,6.63
2018-07-05T18:14:10.944Z,15.50
2018-07-05T18:16:50.966Z,7.80
2018-07-05T18:19:31.199Z,11.80
2018-07-05T18:22:11.058Z,11.00
2018-07-05T18:24:51.214Z,8.60
2018-07-05T18:27:30.927Z,8.73
2018-07-05T18:30:10.795Z,12.73
2018-07-05T18:32:50.673Z,13.43
2018-07-05T18:35:30.472Z,8.87
2018-07-05T18:38:10.223Z,13.63
2018-07-05T18:40:49.884Z,19.33
2018-07-05T18:43:29.529Z,11.23
2018-07-05T18:46:09.481Z,9.97
2018-07-05T18:48:49.626Z,11.57
2018-07-05T18:51:29.407Z,13.50
2018-07-05T18:54:09.418Z,13.17
2018-07-05T18:56:49.563Z,17.77
2018-07-05T18:59:29.300Z,15.30
2018-07-05T19:02:09.123Z,17.67
2018-07-05T19:04:48.880Z,26.47
2018-07-05T19:07:28.880Z,15.93
2018-07-05T19:10:08.711Z,18.60
2018-07-05T19:12:48.753Z,16.17
2018-07-05T19:15:28.616Z,10.73
2018-07-05T19:18:08.649Z,21.03
2018-07-05T19:20:48.726Z,11.93
2018-07-05T19:23:28.568Z,14.67
2018-07-05T19:26:08.256Z,17.83
2018-07-05T19:28:48.060Z,14.50
2018-07-05T19:31:27.987Z,11.60
2018-07-05T19:34:07.808Z,9.97
2018-07-05T19:36:47.635Z,10.63
2018-07-05T19:39:27.734Z,14.43
2018-07-05T19:42:07.471Z,13.43
2018-07-05T19:44:47.448Z,10.77
2018-07-05T19:47:27.156Z,16.53
2018-07-05T19:50:07.235Z,12.30
2018-07-05T19:52:47.210Z,18.37
2018-07-05T19:55:27.356Z,12.50
2018-07-05T19:58:07.009Z,11.07
2018-07-05T20:00:47.250Z,19.77
2018-07-05T20:03:27.008Z,14.57
2018-07-05T20:06:06.867Z,18.27
2018-07-05T20:08:46.669Z,12.30
2018-07-05T20:11:26.596Z,16.53
2018-07-05T20:14:06.400Z,10.47
2018-07-05T20:16:46.594Z,14.83
2018-07-05T20:19:26.346Z,13.50
2018-07-05T20:22:10.366Z,21.23
2018-07-05T20:24:49.976Z,13.63
2018-07-05T20:27:30.012Z,10.73
2018-07-05T20:30:09.821Z,26.63
2018-07-05T20:32:50.023Z,20.27
2018-07-05T20:35:29.961Z,13.80
2018-07-05T20:38:10.134Z,13.50
2018-07-05T20:40:49.963Z,22.80
2018-07-05T20:43:29.927Z,15.40
2018-07-05T20:46:09.731Z,18.80
2018-07-05T20:48:49.716Z,17.83
2018-07-05T20:51:29.639Z,12.60
2018-07-05T20:54:09.619Z,13.33
2018-07-05T20:56:49.443Z,20.57
2018-07-05T20:59:29.720Z,22.40
2018-07-05T21:02:09.764Z,11.93
2018-07-05T21:04:49.796Z,15.03
2018-07-05T21:07:29.559Z,14.10
2018-07-05T21:10:09.416Z,13.20
2018-07-05T21:12:49.201Z,20.73
2018-07-05T21:15:29.151Z,17.13
2018-07-05T21:18:08.875Z,18.67
2018-07-05T21:20:48.812Z,20.83
2018-07-05T21:23:28.933Z,17.03
2018-07-05T21:26:08.796Z,15.90
2018-07-05T21:28:48.453Z,21.77
2018-07-05T21:31:28.908Z,13.57
2018-07-05T21:34:08.657Z,14.07
2018-07-05T21:36:48.687Z,20.57
2018-07-05T21:39:28.373Z,22.57
2018-07-05T21:42:08.352Z,24.43
2018-07-05T21:44:48.065Z,26.50
2018-07-05T21:47:27.928Z,18.97
2018-07-05T21:50:07.984Z,16.97
2018-07-05T21:52:47.797Z,24.40
2018-07-05T21:55:27.604Z,14.87
2018-07-05T21:58:07.394Z,19.03
2018-07-05T22:00:47.151Z,23.10
2018-07-05T22:03:26.927Z,24.40
2018-07-05T22:06:06.797Z,15.43
2018-07-05T22:08:47.014Z,37.93
2018-07-05T22:11:26.595Z,14.13
2018-07-05T22:14:06.770Z,20.80
2018-07-05T22:16:52.000Z,20.20
2018-07-05T22:19:36.992Z,19.50
2018-07-05T22:22:21.977Z,17.27
2018-07-05T22:25:07.371Z,20.03
2018-07-05T22:27:52.540Z,18.33
2018-07-05T22:30:37.716Z,15.83
2018-07-05T22:33:17.376Z,24.97
2018-07-05T22:35:57.036Z,22.53
2018-07-05T22:38:36.640Z,26.73
2018-07-05T22:41:16.488Z,29.10
2018-07-05T22:43:56.260Z,31.33
2018-07-05T22:46:35.979Z,24.83
2018-07-05T22:49:15.880Z,18.73
2018-07-05T22:51:55.908Z,19.47
2018-07-05T22:54:35.704Z,24.00
2018-07-05T22:57:15.515Z,32.87
2018-07-05T22:59:55.235Z,24.70
2018-07-05T23:02:34.997Z,22.30
2018-07-05T23:05:14.801Z,21.83
2018-07-05T23:07:54.507Z,22.47
2018-07-05T23:10:34.388Z,16.83
2018-07-05T23:13:14.464Z,28.23
2018-07-05T23:15:54.067Z,31.37
2018-07-05T23:18:34.202Z,28.27
2018-07-05T23:21:14.012Z,12.10
2018-07-05T23:23:53.772Z,12.53
2018-07-05T23:26:33.427Z,22.27
2018-07-05T23:29:13.040Z,23.63
2018-07-05T23:31:53.003Z,16.73
2018-07-05T23:34:33.232Z,24.90
2018-07-05T23:37:13.092Z,19.57
2018-07-05T23:39:52.835Z,17.33
2018-07-05T23:42:33.264Z,29.10
2018-07-05T23:45:12.960Z,11.17
2018-07-05T23:47:52.680Z,24.40
2018-07-05T23:50:33.024Z,21.67
2018-07-05T23:53:12.795Z,14.63
2018-07-05T23:55:52.720Z,25.80
2018-07-05T23:58:32.608Z,27.73
